createdAt,value
2023-02-16T00:01:26.344Z,18.27
2023-02-16T00:03:56.324Z,17.70
2023-02-16T00:06:26.318Z,18.17
2023-02-16T00:08:56.332Z,17.33
2023-02-16T00:11:46.168Z,18.03
2023-02-16T00:14:15.252Z,16.97
2023-02-16T00:16:43.631Z,17.67
2023-02-16T00:19:21.339Z,17.53
2023-02-16T00:21:52.561Z,17.27
2023-02-16T00:24:22.609Z,16.57
2023-02-16T00:26:50.912Z,18.10
2023-02-16T00:29:23.578Z,19.17
2023-02-16T00:31:52.027Z,16.90
2023-02-16T00:34:31.881Z,16.40
2023-02-16T00:37:03.209Z,17.77
2023-02-16T00:39:31.243Z,18.80
2023-02-16T00:42:03.524Z,18.03
2023-02-16T00:44:34.907Z,17.77
2023-02-16T00:47:10.029Z,16.83
2023-02-16T00:49:37.808Z,16.77
2023-02-16T00:52:24.091Z,17.50
2023-02-16T00:54:51.845Z,17.93
2023-02-16T00:57:20.949Z,17.73
2023-02-16T00:59:52.536Z,17.97
2023-02-16T01:02:20.273Z,17.37
2023-02-16T01:04:50.282Z,18.40
2023-02-16T01:07:34.950Z,19.43
2023-02-16T01:10:20.006Z,18.23
2023-02-16T01:12:47.819Z,17.73
2023-02-16T01:15:20.177Z,19.10
2023-02-16T01:17:47.912Z,19.47
2023-02-16T01:20:16.877Z,18.30
2023-02-16T01:22:45.978Z,20.17
2023-02-16T01:25:15.487Z,18.97
2023-02-16T01:27:43.973Z,21.53
2023-02-16T01:30:17.011Z,18.97
2023-02-16T01:32:51.282Z,20.50
2023-02-16T01:35:19.782Z,19.37
2023-02-16T01:37:49.415Z,20.37
2023-02-16T01:40:30.009Z,19.67
2023-02-16T01:43:03.163Z,20.37
2023-02-16T01:45:34.844Z,19.53
2023-02-16T01:48:06.587Z,19.73
2023-02-16T01:50:44.315Z,18.77
2023-02-16T01:53:22.220Z,19.90
2023-02-16T01:55:57.046Z,18.50
2023-02-16T01:58:35.178Z,20.20
2023-02-16T02:01:41.451Z,18.37
2023-02-16T02:04:38.836Z,19.30
2023-02-16T02:07:06.608Z,18.30
2023-02-16T02:09:43.614Z,17.80
2023-02-16T02:12:19.857Z,18.30
2023-02-16T02:14:49.200Z,19.97
2023-02-16T02:17:21.294Z,19.87
2023-02-16T02:19:58.059Z,18.80
2023-02-16T02:23:16.314Z,19.57
2023-02-16T02:26:15.058Z,18.13
2023-02-16T02:28:55.236Z,19.27
2023-02-16T02:31:33.779Z,18.57
2023-02-16T02:34:12.932Z,20.50
2023-02-16T02:36:51.247Z,19.70
2023-02-16T02:39:33.249Z,19.77
2023-02-16T02:42:08.787Z,20.37
2023-02-16T02:44:50.053Z,19.97
2023-02-16T02:47:18.314Z,19.63
2023-02-16T02:49:53.925Z,20.03
2023-02-16T02:52:24.986Z,20.50
2023-02-16T02:55:10.351Z,18.77
2023-02-16T02:58:00.491Z,18.60
2023-02-16T03:00:44.039Z,18.33
2023-02-16T03:03:17.869Z,18.23
2023-02-16T03:05:49.484Z,20.00
2023-02-16T03:08:21.263Z,20.60
2023-02-16T03:11:10.329Z,17.80
2023-02-16T03:13:40.835Z,18.03
2023-02-16T03:16:13.557Z,18.70
2023-02-16T03:19:01.473Z,19.50
2023-02-16T03:21:54.980Z,18.60
2023-02-16T03:24:45.279Z,19.20
2023-02-16T03:27:32.841Z,19.60
2023-02-16T03:30:02.435Z,18.70
2023-02-16T03:32:31.863Z,17.80
2023-02-16T03:34:59.644Z,18.90
2023-02-16T03:37:27.597Z,18.43
2023-02-16T03:40:13.048Z,18.20
2023-02-16T03:42:40.820Z,18.83
2023-02-16T03:45:10.104Z,19.37
2023-02-16T03:47:39.286Z,19.70
2023-02-16T03:50:08.480Z,18.97
2023-02-16T03:52:36.200Z,19.63
2023-02-16T03:55:04.008Z,19.33
2023-02-16T03:57:31.788Z,20.17
2023-02-16T03:59:59.887Z,19.53
2023-02-16T04:02:29.196Z,19.37
2023-02-16T04:04:58.339Z,19.67
2023-02-16T04:07:26.122Z,19.43
2023-02-16T04:09:53.793Z,19.30
2023-02-16T04:12:38.574Z,20.63
2023-02-16T04:15:08.994Z,21.33
2023-02-16T04:17:37.001Z,21.00
2023-02-16T04:20:08.220Z,21.83
2023-02-16T04:22:36.046Z,22.07
2023-02-16T04:25:03.802Z,22.10
2023-02-16T04:27:31.639Z,22.50
2023-02-16T04:29:59.442Z,22.53
2023-02-16T04:32:27.168Z,21.13
2023-02-16T04:34:54.930Z,21.83
2023-02-16T04:37:24.051Z,22.37
2023-02-16T04:39:52.030Z,22.40
2023-02-16T04:42:19.765Z,21.47
2023-02-16T04:44:47.524Z,21.27
2023-02-16T04:47:15.348Z,20.87
2023-02-16T04:49:43.134Z,21.27
2023-02-16T04:52:12.257Z,23.13
2023-02-16T04:54:41.773Z,21.23
2023-02-16T04:57:10.789Z,23.00
2023-02-16T04:59:38.762Z,23.83
2023-02-16T05:02:06.467Z,23.10
2023-02-16T05:04:34.392Z,20.63
2023-02-16T05:07:02.173Z,21.77
2023-02-16T05:09:29.884Z,21.33
2023-02-16T05:12:16.288Z,22.67
2023-02-16T05:14:45.128Z,22.80
2023-02-16T05:17:15.927Z,22.77
2023-02-16T05:19:45.592Z,23.33
2023-02-16T05:22:15.028Z,23.90
2023-02-16T05:24:43.651Z,24.27
2023-02-16T05:27:15.782Z,23.67
2023-02-16T05:29:43.611Z,22.83
2023-02-16T05:32:11.534Z,21.10
2023-02-16T05:34:39.655Z,21.03
2023-02-16T05:37:07.672Z,20.90
2023-02-16T05:39:35.373Z,20.77
2023-02-16T05:42:03.164Z,20.90
2023-02-16T05:44:32.245Z,21.60
2023-02-16T05:47:00.011Z,21.57
2023-02-16T05:49:27.750Z,21.17
2023-02-16T05:51:55.661Z,21.53
2023-02-16T05:54:23.489Z,21.63
2023-02-16T05:56:52.769Z,21.37
2023-02-16T05:59:20.622Z,21.30
2023-02-16T06:01:52.165Z,22.20
2023-02-16T06:04:21.546Z,21.07
2023-02-16T06:06:51.513Z,21.77
2023-02-16T06:09:19.595Z,21.30
2023-02-16T06:11:47.448Z,22.40
2023-02-16T06:14:17.777Z,19.57
2023-02-16T06:16:47.788Z,19.77
2023-02-16T06:19:18.064Z,18.83
2023-02-16T06:21:46.134Z,19.47
2023-02-16T06:24:15.503Z,19.53
2023-02-16T06:26:43.287Z,18.80
2023-02-16T06:29:11.508Z,18.87
2023-02-16T06:31:39.412Z,20.23
2023-02-16T06:34:07.517Z,21.03
2023-02-16T06:36:36.725Z,21.33
2023-02-16T06:39:05.109Z,20.63
2023-02-16T06:41:35.673Z,20.50
2023-02-16T06:44:06.321Z,21.77
2023-02-16T06:46:34.293Z,21.23
2023-02-16T06:49:02.503Z,23.13
2023-02-16T06:51:30.351Z,23.87
2023-02-16T06:53:59.853Z,22.43
2023-02-16T06:56:27.921Z,21.93
2023-02-16T06:58:55.638Z,21.77
2023-02-16T07:01:25.770Z,21.83
2023-02-16T07:03:55.348Z,22.03
2023-02-16T07:06:24.410Z,20.67
2023-02-16T07:08:52.657Z,22.90
2023-02-16T07:11:22.617Z,20.83
2023-02-16T07:13:50.886Z,20.90
2023-02-16T07:16:18.730Z,21.13
2023-02-16T07:18:47.329Z,20.83
2023-02-16T07:21:15.540Z,21.07
2023-02-16T07:23:43.946Z,22.90
2023-02-16T07:26:11.662Z,23.10
2023-02-16T07:28:40.847Z,22.33
2023-02-16T07:31:10.004Z,22.60
2023-02-16T07:33:37.906Z,21.97
2023-02-16T07:36:07.017Z,23.10
2023-02-16T07:38:34.922Z,30.83
2023-02-16T07:41:03.572Z,21.93
2023-02-16T07:43:32.022Z,22.50
2023-02-16T07:46:01.162Z,22.17
2023-02-16T07:48:29.231Z,21.83
2023-02-16T07:50:56.945Z,21.93
2023-02-16T07:53:24.769Z,20.80
2023-02-16T07:55:52.567Z,22.27
2023-02-16T07:58:28.104Z,22.20
2023-02-16T08:00:56.999Z,23.23
2023-02-16T08:03:26.351Z,21.47
2023-02-16T08:05:58.204Z,21.90
2023-02-16T08:08:26.075Z,21.10
2023-02-16T08:10:54.016Z,21.57
2023-02-16T08:13:21.707Z,21.30
2023-02-16T08:15:49.493Z,20.27
2023-02-16T08:18:17.232Z,21.40
2023-02-16T08:21:02.818Z,21.60
2023-02-16T08:23:31.779Z,20.97
2023-02-16T08:25:59.951Z,21.20
2023-02-16T08:28:28.972Z,21.83
2023-02-16T08:30:57.058Z,21.40
2023-02-16T08:33:25.187Z,21.70
2023-02-16T08:35:54.328Z,22.17
2023-02-16T08:38:22.752Z,22.53
2023-02-16T08:40:51.168Z,22.13
2023-02-16T08:43:19.226Z,22.83
2023-02-16T08:45:48.396Z,22.20
2023-02-16T08:48:17.834Z,22.73
2023-02-16T08:50:53.517Z,21.60
2023-02-16T08:53:24.563Z,20.67
2023-02-16T08:55:53.229Z,20.97
2023-02-16T08:58:21.155Z,21.13
2023-02-16T09:00:49.708Z,21.90
2023-02-16T09:03:19.232Z,22.77
2023-02-16T09:05:47.533Z,22.53
2023-02-16T09:08:15.772Z,22.13
2023-02-16T09:10:44.975Z,23.13
2023-02-16T09:13:14.890Z,22.67
2023-02-16T09:15:43.179Z,23.10
2023-02-16T09:18:12.486Z,22.43
2023-02-16T09:20:41.417Z,20.97
2023-02-16T09:23:12.309Z,22.40
2023-02-16T09:25:41.837Z,22.13
2023-02-16T09:28:11.939Z,20.73
2023-02-16T09:30:40.324Z,22.17
2023-02-16T09:33:08.226Z,24.13
2023-02-16T09:35:36.011Z,20.83
2023-02-16T09:38:03.779Z,21.93
2023-02-16T09:40:31.634Z,21.53
2023-02-16T09:43:08.896Z,22.20
2023-02-16T09:45:44.773Z,20.33
2023-02-16T09:48:23.360Z,21.60
2023-02-16T09:50:55.223Z,22.00
2023-02-16T09:53:31.488Z,21.40
2023-02-16T09:56:09.354Z,22.13
2023-02-16T09:58:43.001Z,22.80
2023-02-16T10:01:23.790Z,21.23
2023-02-16T10:04:00.650Z,23.27
2023-02-16T10:06:51.657Z,23.10
2023-02-16T10:09:22.148Z,25.23
2023-02-16T10:11:54.539Z,23.37
2023-02-16T10:14:33.561Z,22.87
2023-02-16T10:17:12.304Z,23.33
2023-02-16T10:19:47.697Z,22.27
2023-02-16T10:22:29.361Z,21.77
2023-02-16T10:25:01.681Z,22.60
2023-02-16T10:27:35.980Z,22.43
2023-02-16T10:30:03.854Z,23.47
2023-02-16T10:32:44.218Z,22.10
2023-02-16T10:35:17.330Z,22.20
2023-02-16T10:38:06.737Z,25.40
2023-02-16T10:40:51.863Z,23.50
2023-02-16T10:43:24.934Z,24.50
2023-02-16T10:45:54.513Z,22.23
2023-02-16T10:48:24.832Z,23.60
2023-02-16T10:50:58.910Z,24.03
2023-02-16T10:53:37.524Z,25.47
2023-02-16T10:56:33.634Z,23.47
2023-02-16T10:59:05.785Z,23.30
2023-02-16T11:01:38.490Z,23.00
2023-02-16T11:04:07.841Z,23.23
2023-02-16T11:06:36.714Z,24.13
2023-02-16T11:09:06.701Z,23.73
2023-02-16T11:11:38.442Z,22.63
2023-02-16T11:14:09.413Z,21.97
2023-02-16T11:16:37.277Z,21.70
2023-02-16T11:19:19.508Z,22.47
2023-02-16T11:21:50.197Z,22.20
2023-02-16T11:24:26.901Z,23.30
2023-02-16T11:27:02.568Z,22.47
2023-02-16T11:29:30.581Z,21.93
2023-02-16T11:31:59.661Z,21.67
2023-02-16T11:34:33.335Z,21.23
2023-02-16T11:37:08.296Z,21.97
2023-02-16T11:39:40.096Z,22.77
2023-02-16T11:42:11.013Z,22.60
2023-02-16T11:44:41.932Z,21.40
2023-02-16T11:47:22.207Z,21.77
2023-02-16T11:50:05.820Z,23.63
2023-02-16T11:52:33.663Z,23.20
2023-02-16T11:55:03.011Z,23.13
2023-02-16T11:57:32.573Z,22.57
2023-02-16T12:00:02.008Z,23.60
2023-02-16T12:03:08.002Z,23.00
2023-02-16T12:05:47.598Z,23.50
2023-02-16T12:08:29.012Z,22.27
2023-02-16T12:11:10.540Z,23.23
2023-02-16T12:13:47.529Z,21.67
2023-02-16T12:16:25.818Z,21.87
2023-02-16T12:19:08.861Z,21.33
2023-02-16T12:21:45.251Z,22.17
2023-02-16T12:24:28.232Z,21.77
2023-02-16T12:26:59.266Z,21.67
2023-02-16T12:29:51.426Z,22.13
2023-02-16T12:32:37.310Z,20.40
2023-02-16T12:35:17.078Z,21.00
2023-02-16T12:37:55.041Z,19.33
2023-02-16T12:40:34.726Z,19.30
2023-02-16T12:43:16.532Z,19.57
2023-02-16T12:45:46.192Z,19.83
2023-02-16T12:48:28.844Z,18.90
2023-02-16T12:51:03.043Z,21.43
2023-02-16T12:53:43.149Z,21.13
2023-02-16T12:56:18.085Z,20.60
2023-02-16T12:58:53.406Z,21.27
2023-02-16T13:01:26.950Z,21.00
2023-02-16T13:04:00.285Z,21.63
2023-02-16T13:06:37.460Z,22.90
2023-02-16T13:09:23.592Z,21.47
2023-02-16T13:11:56.571Z,20.47
2023-02-16T13:14:29.082Z,20.70
2023-02-16T13:17:00.548Z,19.17
2023-02-16T13:19:30.132Z,20.43
2023-02-16T13:22:31.942Z,19.97
2023-02-16T13:25:22.763Z,21.90
2023-02-16T13:28:07.130Z,22.50
2023-02-16T13:30:49.774Z,20.67
2023-02-16T13:33:45.124Z,22.53
2023-02-16T13:36:39.855Z,22.50
2023-02-16T13:39:42.050Z,20.93
2023-02-16T13:42:40.353Z,21.67
2023-02-16T13:45:17.165Z,20.67
2023-02-16T13:47:45.580Z,22.07
2023-02-16T13:50:29.932Z,18.67
2023-02-16T13:52:59.881Z,20.27
2023-02-16T13:55:31.247Z,20.70
2023-02-16T13:58:26.989Z,20.55
2023-02-16T14:00:57.136Z,20.87
2023-02-16T14:03:39.854Z,19.20
2023-02-16T14:06:37.040Z,18.98
2023-02-16T14:09:34.479Z,17.38
2023-02-16T14:12:04.661Z,17.27
2023-02-16T14:14:41.321Z,17.43
2023-02-16T14:17:25.028Z,17.60
2023-02-16T14:19:57.621Z,17.13
2023-02-16T14:22:33.571Z,17.23
2023-02-16T14:25:04.391Z,16.87
2023-02-16T14:27:47.856Z,16.13
2023-02-16T14:30:27.363Z,16.77
2023-02-16T14:33:00.385Z,16.57
2023-02-16T14:35:33.867Z,17.00
2023-02-16T14:38:03.507Z,17.13
2023-02-16T14:40:48.359Z,17.63
2023-02-16T14:43:50.415Z,16.13
2023-02-16T14:46:41.266Z,16.58
2023-02-16T14:49:25.840Z,17.57
2023-02-16T14:52:29.637Z,15.70
2023-02-16T14:55:33.583Z,15.87
2023-02-16T14:58:06.969Z,16.30
2023-02-16T15:00:45.817Z,15.73
2023-02-16T15:03:22.314Z,16.38
2023-02-16T15:05:58.208Z,15.30
2023-02-16T15:08:34.941Z,15.90
2023-02-16T15:11:13.635Z,15.93
2023-02-16T15:13:42.874Z,15.23
2023-02-16T15:16:15.453Z,15.90
2023-02-16T15:18:47.744Z,15.33
2023-02-16T15:21:20.770Z,15.87
2023-02-16T15:23:51.777Z,15.15
2023-02-16T15:26:22.294Z,15.67
2023-02-16T15:28:55.410Z,15.07
2023-02-16T15:31:33.375Z,15.20
2023-02-16T15:34:05.704Z,15.67
2023-02-16T15:36:35.741Z,15.37
2023-02-16T15:39:06.090Z,16.10
2023-02-16T15:41:35.900Z,15.40
2023-02-16T15:44:05.821Z,16.40
2023-02-16T15:46:36.967Z,16.53
2023-02-16T15:49:13.848Z,16.92
2023-02-16T15:51:43.269Z,17.87
2023-02-16T15:54:23.166Z,17.70
2023-02-16T15:56:54.048Z,15.60
2023-02-16T15:59:35.050Z,16.60
2023-02-16T16:02:11.820Z,16.73
2023-02-16T16:04:43.654Z,17.03
2023-02-16T16:07:16.144Z,17.30
2023-02-16T16:09:46.278Z,17.00
2023-02-16T16:12:17.189Z,16.33
2023-02-16T16:14:51.463Z,16.20
2023-02-16T16:17:29.798Z,17.10
2023-02-16T16:20:00.266Z,16.00
2023-02-16T16:22:36.052Z,15.30
2023-02-16T16:25:24.823Z,16.53
2023-02-16T16:27:52.785Z,16.30
2023-02-16T16:30:28.757Z,16.43
2023-02-16T16:33:01.365Z,16.73
2023-02-16T16:35:39.738Z,16.47
2023-02-16T16:38:21.093Z,17.80
2023-02-16T16:40:52.847Z,18.63
2023-02-16T16:43:30.195Z,16.00
2023-02-16T16:46:13.673Z,17.10
2023-02-16T16:48:44.885Z,15.88
2023-02-16T16:51:16.866Z,16.13
2023-02-16T16:53:53.426Z,15.77
2023-02-16T16:56:21.948Z,16.90
2023-02-16T16:58:51.310Z,16.03
2023-02-16T17:01:20.664Z,15.90
2023-02-16T17:03:48.749Z,16.37
2023-02-16T17:06:19.071Z,16.98
2023-02-16T17:08:47.524Z,15.27
2023-02-16T17:11:25.067Z,14.57
2023-02-16T17:13:54.808Z,14.30
2023-02-16T17:16:27.382Z,15.23
2023-02-16T17:18:55.215Z,13.73
2023-02-16T17:21:24.452Z,13.47
2023-02-16T17:23:53.614Z,13.13
2023-02-16T17:26:22.177Z,12.85
2023-02-16T17:28:50.745Z,13.03
2023-02-16T17:31:18.611Z,13.40
2023-02-16T17:33:46.399Z,12.27
2023-02-16T17:36:16.691Z,12.17
2023-02-16T17:38:48.343Z,13.13
2023-02-16T17:41:21.321Z,12.27
2023-02-16T17:43:49.084Z,12.32
2023-02-16T17:46:18.020Z,12.87
2023-02-16T17:48:46.510Z,11.43
2023-02-16T17:51:20.109Z,12.10
2023-02-16T17:53:49.278Z,11.50
2023-02-16T17:56:19.870Z,11.93
2023-02-16T17:58:47.974Z,11.20
2023-02-16T18:01:17.430Z,10.53
2023-02-16T18:03:52.479Z,10.93
2023-02-16T18:06:28.160Z,10.73
2023-02-16T18:09:01.520Z,10.93
2023-02-16T18:11:29.586Z,10.43
2023-02-16T18:13:57.908Z,10.43
2023-02-16T18:16:29.173Z,11.17
2023-02-16T18:18:58.408Z,11.02
2023-02-16T18:21:31.663Z,10.50
2023-02-16T18:24:00.842Z,11.23
2023-02-16T18:26:33.294Z,11.13
2023-02-16T18:29:01.431Z,10.90
2023-02-16T18:31:31.199Z,10.73
2023-02-16T18:33:59.202Z,11.07
2023-02-16T18:36:26.928Z,10.80
2023-02-16T18:38:56.902Z,12.73
2023-02-16T18:41:26.014Z,12.13
2023-02-16T18:43:53.890Z,10.23
2023-02-16T18:46:24.743Z,10.52
2023-02-16T18:48:52.516Z,10.27
2023-02-16T18:51:23.470Z,10.60
2023-02-16T18:53:51.229Z,10.13
2023-02-16T18:56:19.017Z,9.52
2023-02-16T18:58:48.484Z,11.30
2023-02-16T19:01:24.666Z,10.47
2023-02-16T19:03:52.489Z,10.52
2023-02-16T19:06:20.506Z,11.53
2023-02-16T19:08:48.510Z,10.83
2023-02-16T19:11:16.176Z,10.20
2023-02-16T19:13:43.886Z,10.73
2023-02-16T19:16:13.087Z,9.33
2023-02-16T19:18:41.176Z,10.23
2023-02-16T19:21:11.470Z,9.97
2023-02-16T19:23:39.361Z,10.37
2023-02-16T19:26:08.002Z,10.60
2023-02-16T19:28:46.264Z,10.70
2023-02-16T19:31:20.829Z,10.10
2023-02-16T19:33:51.730Z,9.23
2023-02-16T19:36:26.929Z,9.03
2023-02-16T19:38:55.359Z,9.13
2023-02-16T19:41:26.565Z,8.03
2023-02-16T19:43:55.015Z,8.07
2023-02-16T19:46:24.797Z,8.47
2023-02-16T19:48:52.756Z,7.87
2023-02-16T19:51:20.468Z,8.17
2023-02-16T19:53:48.917Z,9.83
2023-02-16T19:56:19.189Z,9.53
2023-02-16T19:58:47.505Z,9.32
2023-02-16T20:01:18.026Z,8.70
2023-02-16T20:03:47.515Z,6.93
2023-02-16T20:06:17.908Z,7.50
2023-02-16T20:08:47.561Z,7.27
2023-02-16T20:11:16.459Z,7.27
2023-02-16T20:13:47.683Z,7.10
2023-02-16T20:16:16.968Z,6.75
2023-02-16T20:18:45.488Z,6.90
2023-02-16T20:21:16.192Z,7.77
2023-02-16T20:23:44.276Z,7.50
2023-02-16T20:26:14.941Z,7.43
2023-02-16T20:28:43.062Z,7.47
2023-02-16T20:31:13.461Z,8.10
2023-02-16T20:33:42.182Z,9.10
2023-02-16T20:36:10.682Z,8.13
2023-02-16T20:38:40.267Z,7.63
2023-02-16T20:41:08.098Z,7.40
2023-02-16T20:43:36.116Z,7.60
2023-02-16T20:46:05.216Z,7.68
2023-02-16T20:48:33.276Z,7.60
2023-02-16T20:51:03.406Z,7.63
2023-02-16T20:53:32.516Z,7.37
2023-02-16T20:56:07.628Z,6.90
2023-02-16T20:58:35.981Z,7.30
2023-02-16T21:01:04.099Z,6.67
2023-02-16T21:03:31.782Z,7.47
2023-02-16T21:05:59.616Z,7.67
2023-02-16T21:08:29.617Z,7.97
2023-02-16T21:10:57.680Z,7.60
2023-02-16T21:13:33.294Z,8.07
2023-02-16T21:16:04.150Z,8.33
2023-02-16T21:18:32.366Z,9.20
2023-02-16T21:21:01.292Z,8.85
2023-02-16T21:23:42.261Z,8.63
2023-02-16T21:26:10.118Z,9.10
2023-02-16T21:28:41.081Z,9.13
2023-02-16T21:31:12.523Z,8.32
2023-02-16T21:33:45.500Z,8.57
2023-02-16T21:36:15.377Z,9.30
2023-02-16T21:38:44.085Z,9.10
2023-02-16T21:41:28.646Z,8.93
2023-02-16T21:44:01.397Z,9.10
2023-02-16T21:46:33.227Z,9.80
2023-02-16T21:49:00.551Z,8.97
2023-02-16T21:51:36.507Z,8.43
2023-02-16T21:54:07.042Z,9.97
2023-02-16T21:56:36.880Z,9.60
2023-02-16T21:59:08.132Z,9.97
2023-02-16T22:01:38.711Z,9.87
2023-02-16T22:04:07.375Z,9.67
2023-02-16T22:06:39.422Z,10.50
2023-02-16T22:09:11.741Z,10.53
2023-02-16T22:11:43.070Z,10.30
2023-02-16T22:14:12.571Z,10.93
2023-02-16T22:16:40.520Z,10.57
2023-02-16T22:19:10.296Z,10.45
2023-02-16T22:21:41.405Z,11.47
2023-02-16T22:24:12.358Z,12.07
2023-02-16T22:26:40.495Z,11.30
2023-02-16T22:29:09.716Z,11.93
2023-02-16T22:31:39.542Z,11.20
2023-02-16T22:34:12.211Z,11.33
2023-02-16T22:36:40.375Z,11.70
2023-02-16T22:39:08.566Z,10.13
2023-02-16T22:41:36.722Z,11.33
2023-02-16T22:44:04.603Z,11.60
2023-02-16T22:46:33.042Z,11.60
2023-02-16T22:49:02.198Z,11.80
2023-02-16T22:51:32.615Z,11.77
2023-02-16T22:54:02.408Z,12.07
2023-02-16T22:56:33.264Z,11.50
2023-02-16T22:59:03.825Z,12.40
2023-02-16T23:01:32.225Z,11.93
2023-02-16T23:04:02.439Z,11.70
2023-02-16T23:06:32.004Z,11.73
2023-02-16T23:09:01.376Z,13.10
2023-02-16T23:11:29.615Z,11.83
2023-02-16T23:13:57.681Z,11.13
2023-02-16T23:16:33.176Z,11.77
2023-02-16T23:19:07.732Z,10.33
2023-02-16T23:21:36.152Z,11.67
2023-02-16T23:24:04.493Z,10.77
2023-02-16T23:26:33.242Z,10.27
2023-02-16T23:29:02.770Z,12.00
2023-02-16T23:31:33.553Z,11.43
2023-02-16T23:34:02.651Z,10.30
2023-02-16T23:37:04.571Z,11.03
2023-02-16T23:39:47.521Z,10.67
2023-02-16T23:42:21.506Z,10.73
2023-02-16T23:44:49.929Z,10.10
2023-02-16T23:47:17.794Z,9.30
2023-02-16T23:49:45.636Z,10.50
2023-02-16T23:52:18.559Z,10.60
2023-02-16T23:54:50.877Z,10.60
2023-02-16T23:57:18.900Z,9.40
2023-02-16T23:59:46.746Z,9.87
